createdAt,value
2018-05-18T01:58:16.160Z,70.50
2018-05-18T02:00:46.531Z,70.20
2018-05-18T02:03:16.827Z,70.40
2018-05-18T02:05:46.993Z,70.00
2018-05-18T02:08:17.042Z,70.50
2018-05-18T02:10:47.481Z,69.20
2018-05-18T02:13:17.449Z,69.80
2018-05-18T02:15:47.397Z,68.50
2018-05-18T02:18:17.780Z,68.20
2018-05-18T02:20:48.652Z,68.50
2018-05-18T02:23:18.722Z,68.50
2018-05-18T02:25:49.206Z,67.50
2018-05-18T02:28:20.321Z,69.30
2018-05-18T02:30:50.449Z,69.40
2018-05-18T02:33:21.677Z,72.20
2018-05-18T02:35:51.802Z,72.10
2018-05-18T02:38:22.198Z,71.80
2018-05-18T02:40:52.687Z,74.10
2018-05-18T02:43:22.709Z,74.00
2018-05-18T02:45:53.031Z,74.40
2018-05-18T02:48:23.577Z,74.50
2018-05-18T02:50:53.797Z,75.70
2018-05-18T02:53:24.610Z,73.30
2018-05-18T02:55:56.857Z,73.60
2018-05-18T02:58:26.895Z,73.60
2018-05-18T03:00:58.556Z,69.20
2018-05-18T03:03:29.910Z,68.70
2018-05-18T03:05:59.928Z,68.70
2018-05-18T17:28:45.449Z,50.50
2018-05-18T17:31:15.842Z,50.40
2018-05-18T17:33:46.275Z,50.60
2018-05-18T17:36:16.536Z,51.80
2018-05-18T17:38:46.741Z,51.90
2018-05-18T17:41:17.211Z,52.20
2018-05-18T17:43:48.265Z,52.20
2018-05-18T17:46:19.261Z,52.30
2018-05-18T17:48:49.761Z,52.30
2018-05-18T17:51:19.924Z,52.80
2018-05-18T17:53:50.136Z,52.80
2018-05-18T17:56:20.610Z,52.50
2018-05-18T17:58:50.758Z,52.60
2018-05-18T18:01:20.947Z,52.70
2018-05-18T18:03:51.112Z,52.30
2018-05-18T18:06:21.246Z,52.60
2018-05-18T18:08:51.358Z,53.00
2018-05-18T18:11:23.723Z,52.40
2018-05-18T18:13:55.220Z,52.90
2018-05-18T18:16:27.149Z,52.20
2018-05-18T18:18:57.211Z,52.10
2018-05-18T18:21:27.497Z,51.90
2018-05-18T18:23:58.071Z,50.90
2018-05-18T18:26:28.245Z,51.50
2018-05-18T18:29:01.238Z,51.20
2018-05-18T18:31:33.687Z,52.50
2018-05-18T18:34:03.793Z,52.20
2018-05-18T18:36:34.289Z,52.40
2018-05-18T18:39:04.885Z,52.40
2018-05-18T18:41:35.933Z,52.20
2018-05-18T18:44:06.708Z,52.30
2018-05-18T18:46:36.922Z,52.00
2018-05-18T18:49:08.243Z,52.90
2018-05-18T18:51:39.503Z,53.00
2018-05-18T18:54:10.569Z,52.90
2018-05-18T18:56:41.755Z,52.90
2018-05-18T18:59:12.097Z,53.20
2018-05-18T19:01:42.251Z,54.00
2018-05-18T19:04:13.408Z,53.20
2018-05-18T19:06:44.234Z,53.50
2018-05-18T19:09:14.346Z,53.50
2018-05-18T19:11:44.742Z,53.60
2018-05-18T19:14:15.063Z,53.40
2018-05-18T19:16:45.271Z,53.50
2018-05-18T19:19:15.908Z,54.00
2018-05-18T19:21:46.872Z,54.40
2018-05-18T19:24:18.006Z,56.40
2018-05-18T19:26:48.484Z,56.50
2018-05-18T19:29:18.636Z,55.80
2018-05-18T19:31:48.732Z,55.40
2018-05-18T19:34:19.107Z,55.40
2018-05-18T19:36:49.879Z,55.90
2018-05-18T19:39:20.118Z,55.70
2018-05-18T19:41:50.886Z,55.70
2018-05-18T19:44:20.991Z,56.70
2018-05-18T19:46:51.328Z,56.70
2018-05-18T20:53:17.319Z,58.60
2018-05-18T20:55:49.390Z,58.50
2018-05-18T20:58:21.249Z,58.60
2018-05-18T21:00:52.170Z,59.20
2018-05-18T21:03:23.579Z,59.10
2018-05-18T21:05:55.376Z,59.10
2018-05-18T21:08:26.437Z,59.60
2018-05-18T21:10:57.946Z,59.60
2018-05-18T21:13:28.851Z,59.70
2018-05-18T21:15:59.520Z,60.00
2018-05-18T21:18:30.569Z,60.00
2018-05-18T21:21:02.497Z,59.90
2018-05-18T21:23:33.956Z,60.50
2018-05-18T21:26:07.312Z,60.50
2018-05-18T21:28:38.334Z,60.50
2018-05-18T21:31:10.682Z,60.80
2018-05-18T21:33:41.856Z,61.20
2018-05-18T21:36:12.745Z,60.90
2018-05-18T21:38:43.002Z,60.90
2018-05-18T21:41:19.376Z,61.60
2018-05-18T21:43:49.594Z,61.60
2018-05-18T21:46:20.499Z,61.50
2018-05-18T21:48:50.972Z,61.40
2018-05-18T21:51:21.888Z,61.60
2018-05-18T21:53:52.478Z,61.40
2018-05-18T21:56:22.633Z,62.40
2018-05-18T21:58:52.814Z,61.90
2018-05-18T22:01:24.630Z,61.90
2018-05-18T22:03:56.365Z,62.30
2018-05-18T22:06:26.741Z,62.10
2018-05-18T22:08:56.884Z,62.10
2018-05-18T22:11:28.733Z,62.40
2018-05-18T22:13:58.948Z,62.80
2018-05-18T22:16:28.989Z,62.50
2018-05-18T22:18:59.111Z,62.60
2018-05-18T22:21:29.328Z,62.50
2018-05-18T22:23:59.595Z,63.00
2018-05-18T22:26:30.460Z,63.20
2018-05-18T22:29:00.573Z,63.20
2018-05-18T22:31:30.617Z,62.80
2018-05-18T22:36:43.123Z,62.70
2018-05-18T22:39:13.281Z,62.90
2018-05-18T22:41:43.333Z,63.20
2018-05-18T22:44:14.493Z,63.20
2018-05-18T22:46:46.227Z,63.70
2018-05-18T22:49:16.314Z,63.70
2018-05-18T22:51:46.241Z,63.30
2018-05-18T22:54:16.130Z,63.40
2018-05-18T22:56:46.010Z,63.70
2018-05-18T22:59:17.781Z,63.20
2018-05-18T23:01:47.810Z,63.20
2018-05-18T23:04:18.898Z,62.40
2018-05-18T23:06:48.958Z,62.40
2018-05-18T23:09:20.877Z,62.30
2018-05-18T23:11:50.798Z,63.10
2018-05-18T23:14:20.864Z,63.00
2018-05-18T23:16:50.935Z,63.10
2018-05-18T23:19:21.215Z,63.00
2018-05-18T23:21:51.256Z,62.80
2018-05-18T23:24:21.480Z,63.10
2018-05-18T23:26:51.352Z,63.30
2018-05-18T23:29:21.367Z,63.10
2018-05-18T23:31:51.483Z,64.10
2018-05-18T23:34:22.099Z,63.40
2018-05-18T23:36:52.225Z,63.50
2018-05-18T23:39:23.152Z,63.70
2018-05-18T23:41:53.532Z,63.70
2018-05-18T23:44:23.625Z,64.10
2018-05-18T23:46:53.782Z,65.20
2018-05-18T23:49:24.126Z,64.10
2018-05-18T23:51:54.229Z,66.30
2018-05-18T23:54:24.305Z,65.00
2018-05-18T23:56:54.733Z,64.90
2018-05-18T23:59:24.684Z,64.40
